^^
Datos históricos de la estación: Murcia-Puente Tocinos
Diario Informe para Enero 2, 2019 Unidades:  Ingés    Métrico   Ambas
Diario Semanal Mensual Anual
  Máxima: Mínima: Promedio:
Temperatura: 90.1 °F 74.7 °F 82 °F
Punto de rocio: 71.2 °F 67.1 °F 69.4 °F
Humedad: 81% 48.7% 67%
Velocidad viento: 11.4mph 0mph 5.6mph
Racha viento: 21mph - -
Viento- - SE
Presión: 29.9 in 29.8 in -
Precipitación: 0 in    
 
 
Tabla de datos para Enero 2, 2019
Hora Temperatura Punto de rocio Presión Viento Velocidad viento Racha viento Humedad Intensidad lluvia(por hora) Nubes
00:04 79.2 °F 69.8 °F 29.9 in Sur 3.6 mph 7 mph 73% 0 in
00:09 79.2 °F 69.8 °F 29.9 in SSE 3.4 mph 5.8 mph 72.9% 0 in
00:14 79.2 °F 69.8 °F 29.9 in SSE 3.1 mph 6 mph 73% 0 in
00:19 79.2 °F 69.6 °F 29.9 in Sur 2.9 mph 6 mph 72.8% 0 in
00:24 79 °F 69.6 °F 29.9 in SSE 2.4 mph 5 mph 73% 0 in
00:29 79 °F 69.6 °F 29.9 in SE 2.2 mph 4.3 mph 73% 0 in
00:34 79 °F 69.4 °F 29.9 in NE 1.8 mph 5.2 mph 73% 0 in
00:39 78.6 °F 69.3 °F 29.9 in NNE 2 mph 5 mph 73% 0 in
00:44 78.4 °F 69.4 °F 29.9 in NNO 2.4 mph 5 mph 73.8% 0 in
00:49 78.4 °F 69.4 °F 29.9 in NE 2.2 mph 4.7 mph 74.2% 0 in
00:54 78.3 °F 69.6 °F 29.9 in NNO 2 mph 5 mph 75.1% 0 in
00:59 78.1 °F 69.8 °F 29.9 in NNO 2.2 mph 5 mph 76% 0 in
01:04 77.7 °F 69.8 °F 29.9 in NNE 2.4 mph 5 mph 76.4% 0 in
01:09 77.5 °F 69.8 °F 29.9 in NNE 2.5 mph 5.9 mph 77% 0 in
01:14 77.4 °F 69.8 °F 29.9 in NNE 2.9 mph 6 mph 77.7% 0 in
01:19 77.2 °F 69.8 °F 29.9 in NNE 3 mph 5.2 mph 78% 0 in
01:24 77 °F 70 °F 29.9 in NNE 3.1 mph 5 mph 78.7% 0 in
01:29 77 °F 70 °F 29.9 in North 2.9 mph 5 mph 79% 0 in
01:34 76.8 °F 69.8 °F 29.9 in NNE 2.4 mph 5 mph 79% 0 in
01:39 76.8 °F 69.8 °F 29.9 in NNO 2.4 mph 5.9 mph 79% 0 in
01:44 76.8 °F 69.8 °F 29.9 in NNO 2.4 mph 6.2 mph 79% 0 in
01:49 76.6 °F 69.6 °F 29.9 in NNO 2.6 mph 6 mph 79% 0 in
01:54 76.6 °F 69.6 °F 29.9 in NNO 3.1 mph 6 mph 79% 0 in
01:59 76.6 °F 69.6 °F 29.9 in NO 2.9 mph 6 mph 79% 0 in
02:04 76.6 °F 69.6 °F 29.9 in NO 2.4 mph 5 mph 79% 0 in
02:09 76.6 °F 69.6 °F 29.9 in NO 2.2 mph 5 mph 79% 0 in
02:14 76.6 °F 69.6 °F 29.9 in NO 1.8 mph 4 mph 79% 0 in
02:19 76.8 °F 69.8 °F 29.9 in NNO 1.9 mph 4.6 mph 79% 0 in
02:24 76.8 °F 69.8 °F 29.9 in NNO 2 mph 5 mph 79% 0 in
02:29 76.8 °F 69.8 °F 29.9 in NO 1.8 mph 5 mph 79% 0 in
02:34 76.8 °F 69.8 °F 29.9 in NO 1.4 mph 3.5 mph 79% 0 in
02:39 76.8 °F 69.8 °F 29.9 in NO 0.9 mph 3 mph 79% 0 in
02:44 76.8 °F 70.2 °F 29.9 in Calm     79.9% 0 in
02:49 76.8 °F 70 °F 29.9 in Calm   3.6 mph 79.8% 0 in
02:54 76.6 °F 69.6 °F 29.9 in Calm   5.2 mph 79.3% 0 in
02:59 76.3 °F 69.8 °F 29.9 in ESE 1.2 mph 5 mph 80% 0 in
03:04 76.1 °F 69.6 °F 29.9 in SE 3.1 mph 5 mph 80% 0 in
03:09 75.9 °F 69.6 °F 29.9 in SE 2.5 mph 4.6 mph 80.8% 0 in
03:14 75.9 °F 69.6 °F 29.9 in SE 1.4 mph 5 mph 81% 0 in
03:19 75.9 °F 69.6 °F 29.9 in ESE 1.7 mph 5 mph 81% 0 in
03:24 76.1 °F 69.8 °F 29.9 in SE 2.4 mph 5 mph 81% 0 in
03:29 76.1 °F 69.8 °F 29.9 in SE 2.2 mph 5.9 mph 81% 0 in
03:34 76.1 °F 69.8 °F 29.9 in SE 2 mph 6 mph 81% 0 in
03:39 76.1 °F 69.8 °F 29.9 in SE 2.5 mph 5.2 mph 81% 0 in
03:44 76.1 °F 69.6 °F 29.9 in SSE 3.6 mph 5.4 mph 80.5% 0 in
03:49 76.1 °F 69.6 °F 29.9 in Sur 3.4 mph 6 mph 80% 0 in
03:54 76.3 °F 69.6 °F 29.9 in Sur 2.9 mph 5.2 mph 80% 0 in
03:59 76.3 °F 69.6 °F 29.9 in Sur 3 mph 5.4 mph 80% 0 in
04:04 76.3 °F 69.8 °F 29.9 in Sur 3.1 mph 6 mph 80% 0 in
04:09 76.5 °F 69.6 °F 29.9 in Sur 3.4 mph 6 mph 79.1% 0 in
04:14 76.5 °F 69.4 °F 29.9 in Sur 4 mph 6 mph 79% 0 in
04:19 76.5 °F 69.6 °F 29.9 in SSO 3.7 mph 6 mph 79% 0 in
04:24 76.6 °F 69.8 °F 29.9 in SO 3.1 mph 5 mph 79.5% 0 in
04:29 76.6 °F 69.6 °F 29.9 in OSO 2.9 mph 5 mph 79% 0 in
04:34 76.6 °F 69.6 °F 29.9 in OSO 2.4 mph 5 mph 79% 0 in
04:39 76.6 °F 69.6 °F 29.9 in Oeste 2.2 mph 5.2 mph 79% 0 in
04:44 76.6 °F 69.6 °F 29.9 in OSO 1.8 mph 5 mph 79.3% 0 in
04:49 76.5 °F 69.4 °F 29.9 in OSO 2.2 mph 5 mph 79% 0 in
04:54 76.5 °F 69.4 °F 29.9 in SO 2.9 mph 5.9 mph 78.6% 0 in
04:59 76.5 °F 69.3 °F 29.9 in SO 2.9 mph 6 mph 78% 0 in
05:04 76.6 °F 69.3 °F 29.9 in OSO 2.9 mph 6 mph 78% 0 in
05:09 76.6 °F 69.3 °F 29.9 in SO 2.5 mph 8.5 mph 78% 0 in
05:14 76.5 °F 69.1 °F 29.9 in SO 2 mph 9 mph 78% 0 in
05:19 76.5 °F 69.1 °F 29.9 in SO 2.8 mph 8.1 mph 78% 0 in
05:24 76.5 °F 69.4 °F 29.9 in OSO 4.3 mph 8.1 mph 78.9% 0 in
05:29 76.3 °F 69.3 °F 29.9 in OSO 4.5 mph 8.1 mph 79% 0 in
05:34 76.3 °F 69.3 °F 29.9 in OSO 4.7 mph 10.7 mph 79% 0 in
05:39 75.9 °F 68.9 °F 29.9 in OSO 5.2 mph 11 mph 79% 0 in
05:44 75.9 °F 68.9 °F 29.9 in SO 5.9 mph 10 mph 79% 0 in
05:49 75.9 °F 68.9 °F 29.9 in SO 5.5 mph 9 mph 79% 0 in
05:54 75.7 °F 68.9 °F 29.8 in SO 4.7 mph 9 mph 79.1% 0 in
05:59 75.7 °F 68.9 °F 29.8 in SO 4.5 mph 8.1 mph 79.5% 0 in
06:04 75.7 °F 69.1 °F 29.8 in SO 4.3 mph 8 mph 80% 0 in
06:09 75.6 °F 69.1 °F 29.8 in OSO 4.2 mph 7 mph 80% 0 in
06:14 75.6 °F 69.1 °F 29.8 in SO 4 mph 6.9 mph 80% 0 in
06:19 75.4 °F 68.9 °F 29.8 in SO 4.1 mph 7 mph 80% 0 in
06:24 75.4 °F 68.7 °F 29.8 in SO 4.3 mph 6 mph 80% 0 in
06:29 75.4 °F 68.7 °F 29.8 in Sur 4 mph 8.1 mph 80% 0 in
06:34 75 °F 68.5 °F 29.9 in SSE 3.6 mph 8 mph 80% 0 in
06:39 74.8 °F 68.4 °F 29.9 in SSE 4 mph 7.6 mph 80% 0 in
06:44 74.8 °F 68.5 °F 29.9 in Sur 4.7 mph 8.5 mph 80.8% 0 in
06:49 74.7 °F 68.4 °F 29.9 in Sur 4.9 mph 9 mph 81% 0 in
06:54 74.7 °F 68.4 °F 29.9 in SSE 5.2 mph 8.1 mph 81% 0 in
06:59 74.7 °F 68.2 °F 29.9 in SSE 5.3 mph 8.1 mph 80.5% 0 in
07:04 74.7 °F 68.4 °F 29.9 in SSE 5.4 mph 8 mph 80.8% 0 in
07:09 74.7 °F 68.4 °F 29.9 in SSE 5 mph 7 mph 81% 0 in
07:14 74.7 °F 68.4 °F 29.9 in SSE 4.3 mph 6.9 mph 81% 0 in
07:19 74.8 °F 68.5 °F 29.9 in SSE 4.3 mph 7 mph 81% 0 in
07:24 74.8 °F 68.5 °F 29.9 in SE 4.3 mph 6 mph 81% 0 in
07:29 74.8 °F 68.5 °F 29.9 in SE 4.2 mph 6.9 mph 81% 0 in
07:34 74.8 °F 68.5 °F 29.9 in Sur 4 mph 7 mph 81% 0 in
07:39 75 °F 68.7 °F 29.9 in SSO 3.7 mph 7 mph 81% 0 in
07:44 75 °F 68.7 °F 29.9 in SO 3.1 mph 5 mph 81% 0 in
07:49 75.2 °F 69.1 °F 29.9 in SO 2.9 mph 5.2 mph 81% 0 in
07:54 75.4 °F 68.9 °F 29.9 in Oeste 2.4 mph 5 mph 80.5% 0 in
07:59 75.6 °F 69.1 °F 29.9 in Oeste 2.7 mph 5 mph 80% 0 in
08:04 75.7 °F 69.1 °F 29.9 in ONO 3.1 mph 5.2 mph 80% 0 in
08:09 75.7 °F 69.3 °F 29.9 in ONO 3 mph 5.2 mph 80% 0 in
08:14 76.1 °F 69.1 °F 29.9 in ONO 2.9 mph 5 mph 79.1% 0 in
08:19 76.3 °F 69.3 °F 29.9 in ONO 2.7 mph 5 mph 79% 0 in
08:24 76.5 °F 69.4 °F 29.9 in Oeste 2.4 mph 5 mph 79% 0 in
08:29 76.6 °F 69.3 °F 29.9 in OSO 2.2 mph 5 mph 78.1% 0 in
08:34 76.8 °F 69.4 °F 29.9 in ONO 2 mph 5 mph 78% 0 in
08:39 77.4 °F 69.6 °F 29.9 in ENE 1.9 mph 3.5 mph 77.1% 0 in
08:44 77.9 °F 69.6 °F 29.9 in NE 1.8 mph 3 mph 75.6% 0 in
08:49 78.4 °F 69.8 °F 29.9 in NE 1.7 mph 4.6 mph 75% 0 in
08:54 78.4 °F 69.6 °F 29.9 in NE 1.4 mph 6.2 mph 74.2% 0 in
08:59 78.3 °F 69.6 °F 29.9 in NNE 2.4 mph 6.2 mph 74.7% 0 in
09:04 78.3 °F 69.6 °F 29.9 in NE 4 mph 6 mph 74.9% 0 in
09:09 78.3 °F 69.8 °F 29.9 in NE 3.7 mph 6 mph 75% 0 in
09:14 78.4 °F 69.6 °F 29.9 in ENE 3.1 mph 5.2 mph 74.5% 0 in
09:19 78.6 °F 70 °F 29.9 in NE 3.1 mph 5 mph 75% 0 in
09:24 79 °F 70 °F 29.9 in NE 3.1 mph 6.9 mph 74.1% 0 in
09:29 79 °F 70 °F 29.9 in NE 3.3 mph 7 mph 74% 0 in
09:34 79.2 °F 70.2 °F 29.9 in NNE 3.6 mph 6.9 mph 73.9% 0 in
09:39 79.2 °F 70 °F 29.9 in NNE 3.6 mph 7 mph 73.4% 0 in
09:44 79.3 °F 69.8 °F 29.9 in NNE 3.6 mph 6 mph 73% 0 in
09:49 79.5 °F 70 °F 29.9 in NE 3.4 mph 6 mph 72.6% 0 in
09:54 79.9 °F 70.2 °F 29.9 in ENE 3.1 mph 6 mph 72.4% 0 in
09:59 80.2 °F 70.2 °F 29.9 in North 3.1 mph 5.2 mph 71.8% 0 in
10:04 80.6 °F 70.3 °F 29.9 in NNE 3.1 mph 5.2 mph 71.3% 0 in
10:09 81 °F 70.3 °F 29.9 in NE 3 mph 6.9 mph 70.1% 0 in
10:14 81.1 °F 70.3 °F 29.9 in NE 2.9 mph 9.2 mph 69.8% 0 in
10:19 81.1 °F 70.2 °F 29.9 in ENE 3.4 mph 9.2 mph 69.6% 0 in
10:24 81 °F 70.3 °F 29.9 in NE 4.3 mph 9 mph 70% 0 in
10:29 81.1 °F 70.3 °F 29.9 in NNE 4.3 mph 8 mph 69.7% 0 in
10:34 81.5 °F 70.3 °F 29.9 in NNE 4.3 mph 8.1 mph 69% 0 in
10:39 81.9 °F 70.5 °F 29.9 in NNE 4.3 mph 9.2 mph 68.8% 0 in
10:44 81.9 °F 70.3 °F 29.9 in NNE 4.3 mph 9.7 mph 68.2% 0 in
10:49 81.9 °F 70.3 °F 29.9 in NNO 4.6 mph 10 mph 68% 0 in
10:54 82 °F 70.5 °F 29.9 in NNE 5.2 mph 10 mph 68.3% 0 in
10:59 82.4 °F 70.5 °F 29.9 in NNE 5.2 mph 11.5 mph 67.5% 0 in
11:04 82.6 °F 70.5 °F 29.9 in NNE 5.2 mph 12 mph 67% 0 in
11:09 82.8 °F 70.5 °F 29.9 in NNE 5.3 mph 9.7 mph 66.5% 0 in
11:14 82.9 °F 70.3 °F 29.9 in NE 5.4 mph 10 mph 65.6% 0 in
11:19 83.1 °F 70.2 °F 29.9 in NNE 5.6 mph 10.7 mph 65% 0 in
11:24 83.7 °F 70.2 °F 29.9 in NNE 5.9 mph 11.5 mph 64.1% 0 in
11:29 83.8 °F 70.2 °F 29.9 in NNE 5.7 mph 12 mph 63.5% 0 in
11:34 84 °F 70.2 °F 29.9 in NE 5.4 mph 11.5 mph 63.1% 0 in
11:39 84.6 °F 70.2 °F 29.9 in NE 5.6 mph 14 mph 62.5% 0 in
11:44 84.7 °F 69.8 °F 29.9 in NNE 5.9 mph 14 mph 61.2% 0 in
11:49 84.9 °F 70.2 °F 29.9 in ENE 5.7 mph 11 mph 61.3% 0 in
11:54 85.3 °F 69.4 °F 29.9 in ESE 5.4 mph 10.4 mph 59.2% 0 in
11:59 85.6 °F 69.1 °F 29.9 in SE 5.3 mph 11.5 mph 58% 0 in
12:04 85.8 °F 68.7 °F 29.9 in ESE 5.2 mph 13.8 mph 57% 0 in
12:09 85.6 °F 68.9 °F 29.9 in SSE 6 mph 14 mph 57.2% 0 in
12:14 85.8 °F 68.9 °F 29.9 in ESE 7.4 mph 14 mph 57.1% 0 in
12:19 85.8 °F 68.9 °F 29.9 in ESE 7.8 mph 15 mph 57.1% 0 in
12:24 86.2 °F 69.3 °F 29.9 in ESE 8.5 mph 15 mph 57.1% 0 in
12:29 86.4 °F 69.3 °F 29.9 in SE 8.3 mph 14 mph 56.8% 0 in
12:34 86.4 °F 69.3 °F 29.9 in SE 8.1 mph 16.3 mph 57% 0 in
12:39 86.2 °F 69.3 °F 29.9 in SE 8.1 mph 16 mph 57.2% 0 in
12:44 86.2 °F 69.4 °F 29.9 in ESE 8.1 mph 16.3 mph 57.6% 0 in
12:49 85.8 °F 69.1 °F 29.9 in SE 8.3 mph 16 mph 57.5% 0 in
12:54 86.2 °F 69.6 °F 29.9 in ESE 8.5 mph 17.8 mph 57.9% 0 in
12:59 86 °F 69.3 °F 29.9 in ESE 9.1 mph 18.4 mph 57.7% 0 in
13:04 85.8 °F 69.4 °F 29.9 in ESE 10 mph 18 mph 58.2% 0 in
13:09 86.2 °F 69.6 °F 29.9 in ESE 10.1 mph 16 mph 58.1% 0 in
13:14 86.4 °F 69.3 °F 29.9 in ESE 10.2 mph 17.3 mph 57% 0 in
13:19 86.4 °F 68.9 °F 29.9 in SE 10 mph 17 mph 56.2% 0 in
13:24 86.2 °F 69.3 °F 29.9 in ESE 9.7 mph 17.3 mph 57.1% 0 in
13:29 86.4 °F 69.4 °F 29.9 in ESE 9.7 mph 17 mph 57.2% 0 in
13:34 86.5 °F 69.4 °F 29.9 in ESE 9.7 mph 17.5 mph 57.1% 0 in
13:39 86.7 °F 69.6 °F 29.9 in ESE 9.8 mph 18.4 mph 56.9% 0 in
13:44 86.7 °F 69.6 °F 29.9 in ESE 10 mph 18 mph 56.6% 0 in
13:49 86.7 °F 69.4 °F 29.9 in ESE 9.8 mph 16 mph 56.3% 0 in
13:54 86.7 °F 69.8 °F 29.9 in ESE 9.2 mph 18.4 mph 57% 0 in
13:59 86.5 °F 69.8 °F 29.9 in ESE 10.1 mph 19.6 mph 57.5% 0 in
14:04 86.7 °F 70 °F 29.9 in ESE 11.4 mph 20 mph 57.3% 0 in
14:09 86.9 °F 70 °F 29.9 in Este 10.9 mph 17 mph 57.3% 0 in
14:14 87.1 °F 69.8 °F 29.9 in ESE 10 mph 17.5 mph 56.6% 0 in
14:19 87.3 °F 70 °F 29.9 in SE 10 mph 17.3 mph 56.6% 0 in
14:24 87.4 °F 69.8 °F 29.9 in ESE 10 mph 17.5 mph 56.2% 0 in
14:29 87.3 °F 70 °F 29.9 in ESE 10.3 mph 18.5 mph 56.9% 0 in
14:34 87.1 °F 70 °F 29.9 in ESE 10.7 mph 19 mph 57% 0 in
14:39 87.3 °F 70 °F 29.9 in ESE 10.5 mph 18.4 mph 56.8% 0 in
14:44 87.3 °F 69.8 °F 29.9 in ESE 10.2 mph 18 mph 56.3% 0 in
14:49 87.3 °F 69.8 °F 29.9 in ESE 10 mph 16.3 mph 56.1% 0 in
14:54 87.4 °F 69.4 °F 29.9 in SE 9.7 mph 16.1 mph 55.6% 0 in
14:59 87.3 °F 69.6 °F 29.9 in SE 9.7 mph 16.1 mph 56.2% 0 in
15:04 87.3 °F 69.4 °F 29.9 in ESE 9.7 mph 16.1 mph 55.7% 0 in
15:09 87.4 °F 69.3 °F 29.9 in SE 9.3 mph 16.1 mph 54.7% 0 in
15:14 87.8 °F 69.6 °F 29.9 in SE 8.7 mph 16 mph 55% 0 in
15:19 87.8 °F 69.4 °F 29.9 in SE 8.5 mph 17.5 mph 54.3% 0 in
15:24 87.8 °F 69.3 °F 29.9 in ESE 8.1 mph 17 mph 54.2% 0 in
15:29 88 °F 69.3 °F 29.9 in SE 8.1 mph 15 mph 54.1% 0 in
15:34 88 °F 69.3 °F 29.9 in SE 8.1 mph 16.3 mph 54% 0 in
15:39 87.6 °F 69.6 °F 29.9 in SE 8.7 mph 20.7 mph 55.4% 0 in
15:44 87.6 °F 69.8 °F 29.9 in SE 9.7 mph 21 mph 55.5% 0 in
15:49 87.6 °F 69.8 °F 29.9 in SE 9.9 mph 18 mph 55.5% 0 in
15:54 88 °F 70 °F 29.9 in ESE 10.2 mph 17.3 mph 55.6% 0 in
15:59 88.2 °F 70 °F 29.9 in ESE 10.1 mph 17 mph 54.9% 0 in
16:04 88.2 °F 70.2 °F 29.9 in ESE 10 mph 16.1 mph 55.1% 0 in
16:09 88.2 °F 70 °F 29.9 in ESE 10 mph 19 mph 55.1% 0 in
16:14 88.3 °F 69.8 °F 29.9 in ESE 10 mph 19 mph 54.3% 0 in
16:19 88.2 °F 70 °F 29.9 in ESE 9.6 mph 17.3 mph 55% 0 in
16:24 88.3 °F 69.8 °F 29.9 in SE 8.7 mph 17 mph 54.4% 0 in
16:29 88.2 °F 70 °F 29.9 in SE 8.7 mph 16.3 mph 55% 0 in
16:34 88 °F 70 °F 29.9 in SE 8.7 mph 16.1 mph 55.2% 0 in
16:39 87.4 °F 69.6 °F 29.9 in SE 9.1 mph 17.3 mph 55.4% 0 in
16:44 87.4 °F 69.6 °F 29.9 in SE 9.7 mph 17 mph 55.7% 0 in
16:49 87.8 °F 70 °F 29.9 in ESE 8.8 mph 14 mph 55.6% 0 in
16:54 87.8 °F 69.6 °F 29.9 in ESE 6.9 mph 14 mph 55.1% 0 in
16:59 88.2 °F 69.8 °F 29.9 in SE 6.9 mph 12.7 mph 54.7% 0 in
17:04 88.5 °F 69.6 °F 29.9 in SE 6.9 mph 13 mph 53.8% 0 in
17:09 88.7 °F 69.4 °F 29.9 in SE 6.6 mph 13 mph 53% 0 in
17:14 88.5 °F 69.6 °F 29.9 in ESE 5.9 mph 11.8 mph 53.6% 0 in
17:19 88.7 °F 70 °F 29.9 in SE 5.7 mph 12 mph 53.9% 0 in
17:24 88.5 °F 69.8 °F 29.9 in ENE 5.2 mph 10 mph 54% 0 in
17:29 88.7 °F 69.8 °F 29.9 in ESE 5 mph 10 mph 53.9% 0 in
17:34 89.1 °F 70 °F 29.9 in SSE 4.7 mph 10 mph 53.4% 0 in
17:39 89.6 °F 70 °F 29.9 in NE 4 mph 7.4 mph 52.6% 0 in
17:44 90 °F 70 °F 29.9 in NE 2.9 mph 7 mph 52.2% 0 in
17:49 90 °F 69.8 °F 29.9 in NE 3.2 mph 7 mph 51.7% 0 in
17:54 89.8 °F 69.6 °F 29.9 in ENE 3.6 mph 9.2 mph 51.7% 0 in
17:59 89.4 °F 69.6 °F 29.9 in NNE 4.4 mph 11.5 mph 52% 0 in
18:04 89.4 °F 69.3 °F 29.9 in NE 5.9 mph 15 mph 51.7% 0 in
18:09 89.2 °F 68.9 °F 29.9 in NE 6.6 mph 15 mph 51.2% 0 in
18:14 89.4 °F 68.7 °F 29.9 in NE 8.1 mph 13 mph 50.6% 0 in
18:19 89.4 °F 67.6 °F 29.9 in NE 7.8 mph 13 mph 48.7% 0 in
18:24 89.8 °F 68.2 °F 29.8 in NE 7.4 mph 13 mph 49.2% 0 in
18:29 89.8 °F 68 °F 29.8 in NE 7.4 mph 13.8 mph 49% 0 in
18:34 89.8 °F 68.4 °F 29.8 in NNE 7.4 mph 14 mph 49.4% 0 in
18:39 90 °F 68.5 °F 29.8 in NE 6.8 mph 12 mph 49.5% 0 in
18:44 90.1 °F 68.7 °F 29.8 in NE 5.9 mph 14 mph 49.5% 0 in
18:49 90 °F 68.7 °F 29.8 in NE 6.7 mph 14 mph 50% 0 in
18:54 89.8 °F 68.7 °F 29.8 in NNE 8.1 mph 14 mph 50% 0 in
18:59 89.8 °F 68.7 °F 29.8 in NNE 8.1 mph 13 mph 50% 0 in
19:04 90 °F 68.7 °F 29.8 in NE 8.1 mph 13 mph 50% 0 in
19:09 90 °F 68.7 °F 29.8 in NE 7.8 mph 14 mph 49.9% 0 in
19:14 89.8 °F 68.5 °F 29.8 in NNE 7.4 mph 14 mph 49.9% 0 in
19:19 89.8 °F 68 °F 29.8 in NE 7.6 mph 14 mph 49% 0 in
19:24 89.4 °F 68 °F 29.8 in NNE 8.1 mph 14 mph 49.6% 0 in
19:29 89.2 °F 68 °F 29.8 in NE 8.1 mph 14 mph 49.6% 0 in
19:34 89.2 °F 68.2 °F 29.8 in NE 8.1 mph 14 mph 49.9% 0 in
19:39 89.2 °F 67.8 °F 29.8 in NE 8.1 mph 15 mph 49.4% 0 in
19:44 89.1 °F 67.5 °F 29.8 in NNE 8.1 mph 15 mph 49.1% 0 in
19:49 88.9 °F 67.3 °F 29.8 in NE 8.1 mph 14 mph 49% 0 in
19:54 88.9 °F 67.3 °F 29.8 in NE 8.1 mph 13 mph 49% 0 in
19:59 88.9 °F 67.1 °F 29.8 in NE 7.9 mph 13 mph 49% 0 in
20:04 88.7 °F 67.1 °F 29.8 in NE 7.6 mph 13.8 mph 49% 0 in
20:09 88.7 °F 67.3 °F 29.8 in NE 7.5 mph 14 mph 49.5% 0 in
20:14 88.5 °F 67.5 °F 29.8 in NE 7.4 mph 13 mph 50.1% 0 in
20:19 88.3 °F 68 °F 29.8 in NE 7.4 mph 13 mph 51% 0 in
20:24 88 °F 68 °F 29.8 in NE 7.4 mph 16.1 mph 51.6% 0 in
20:29 87.6 °F 68.2 °F 29.8 in NE 7.6 mph 16 mph 52.5% 0 in
20:34 87.6 °F 68.4 °F 29.8 in NE 8.1 mph 13.8 mph 53% 0 in
20:39 87.3 °F 68.4 °F 29.8 in NE 8 mph 14 mph 53.5% 0 in
20:44 86.9 °F 68.4 °F 29.8 in NE 7.6 mph 14 mph 54% 0 in
20:49 86.5 °F 68.5 °F 29.8 in NE 8 mph 14 mph 54.8% 0 in
20:54 86.4 °F 68.4 °F 29.8 in NE 8.5 mph 15 mph 55% 0 in
20:59 86.2 °F 68.4 °F 29.8 in NE 8.5 mph 15 mph 55.8% 0 in
21:04 85.8 °F 68.4 °F 29.8 in NE 8.5 mph 13.8 mph 56% 0 in
21:09 85.6 °F 68.7 °F 29.8 in ENE 8.2 mph 14 mph 57% 0 in
21:14 85.5 °F 68.7 °F 29.8 in ENE 7.6 mph 13 mph 57.2% 0 in
21:19 85.5 °F 69.3 °F 29.9 in ESE 6.3 mph 7.4 mph 58.7% 0 in
21:24 85.3 °F 69.8 °F 29.9 in ESE 4 mph 9.2 mph 60.2% 0 in
21:29 84.7 °F 69.8 °F 29.9 in ESE 4.8 mph 11.8 mph 61% 0 in
21:34 84.4 °F 69.8 °F 29.9 in ESE 6.2 mph 12.5 mph 62% 0 in
21:39 83.8 °F 69.8 °F 29.9 in ESE 6.3 mph 13 mph 62.8% 0 in
21:44 83.7 °F 69.8 °F 29.9 in ESE 6.4 mph 16.1 mph 63.5% 0 in
21:49 82.9 °F 69.8 °F 29.9 in SE 7.1 mph 16 mph 64.7% 0 in
21:54 82.6 °F 70 °F 29.9 in ESE 8.5 mph 14 mph 65.5% 0 in
21:59 82.2 °F 70 °F 29.9 in ESE 8.3 mph 14 mph 66.4% 0 in
22:04 81.9 °F 70 °F 29.9 in ESE 8.1 mph 12.7 mph 67% 0 in
22:09 81.7 °F 70 °F 29.9 in ESE 8.1 mph 13 mph 67.9% 0 in
22:14 81.3 °F 69.8 °F 29.9 in ESE 8.1 mph 12 mph 68.2% 0 in
22:19 81.1 °F 70 °F 29.9 in Este 7.5 mph 10 mph 69% 0 in
22:24 81 °F 70 °F 29.9 in ESE 6.2 mph 10.2 mph 69.2% 0 in
22:29 81 °F 70.2 °F 29.9 in ESE 6.5 mph 11.8 mph 70% 0 in
22:34 80.8 °F 70.2 °F 29.9 in ESE 6.9 mph 12 mph 70.4% 0 in
22:39 80.4 °F 70.2 °F 29.9 in ESE 6.6 mph 12.3 mph 71% 0 in
22:44 80.2 °F 70.3 °F 29.9 in ESE 6.2 mph 15 mph 72% 0 in
22:49 80.1 °F 70.5 °F 29.9 in ESE 7.4 mph 15 mph 73.1% 0 in
22:54 79.7 °F 70.7 °F 29.9 in ESE 9.7 mph 15.2 mph 74% 0 in
22:59 79.5 °F 70.5 °F 29.9 in ESE 9.7 mph 15 mph 74.1% 0 in
23:04 79.3 °F 70.7 °F 29.9 in Este 9.7 mph 15 mph 75% 0 in
23:09 79.3 °F 70.7 °F 29.9 in ESE 8.9 mph 12.7 mph 75% 0 in
23:14 79.3 °F 70.7 °F 29.9 in ESE 7.6 mph 13 mph 75% 0 in
23:19 79.2 °F 70.9 °F 29.9 in ESE 7.5 mph 13 mph 75.9% 0 in
23:24 79.2 °F 70.9 °F 29.9 in Este 7.4 mph 10 mph 76% 0 in
23:29 79.2 °F 70.9 °F 29.9 in Este 6.9 mph 10.4 mph 76% 0 in
23:34 79.2 °F 70.9 °F 29.9 in ENE 5.9 mph 10 mph 76% 0 in
23:39 79 °F 71.2 °F 29.9 in ENE 5.3 mph 9.2 mph 77% 0 in
23:44 79 °F 71.2 °F 29.9 in Este 4.3 mph 10.7 mph 77% 0 in
23:49 78.8 °F 71.1 °F 29.9 in Este 5 mph 11 mph 77% 0 in
23:54 78.8 °F 70.9 °F 29.9 in NE 6.2 mph 9.2 mph 76.7% 0 in
23:59 78.8 °F 70.9 °F 29.9 in NE 5.8 mph 8.1 mph 76.6% 0 in
Murcia-Puente Tocinos, España
Compliments of Weather Underground - 3 mb

La estación de MeteoMurcia.com, publica sus datos en los siguientes proyectos:

Weather Underground PWS IMURCIAP2 Meteoclimatic www.awekas.at

W3Counter
Web Analytics